aviador You're here:

KBKB Decoded Metar

FULLERTON/POLK in LA, USA
Report Time2018-01-19 18:54:00
UTC Time2018-01-19 19:08:32
Flight Rules vfr VFR
Wind180° at 04 kt
W.Rank180° ranks 9
Current wind is below 180° avg. (5.5)
Visibility9999 m
Phenomena:N/A
Clouds:Overcast 060 Hf
Expected CloudBase > 6,000 ft AGL from Temp-Dew spread
Ceiling6,000 ft
Temp09°C (ISA -5)
Dew Point-6°C (34% RH)
AAT4.8°C
QNH1024 hPa
Density Alt-653 ft
Elevation308 ft
Report Wrong Elevation
Raw Report
KBKB 191854Z AUTO 18004KT 10SM OVC060 09/M06 A3025 RMK AO2 SLP275
T00941061=

Extra information for KBKB:More info

Metar Taf Metar & Taf Last 4 Metars F.Rules Stats Wind Profile Meteogram Temp Stats Airport Information Weather charts Add Link Nearby VenuesMetar ALERT Operation Metar Decoded Social comments

AIRNAV info for KBKB